USCGC Polar Star — NBTM — position and weather

sailwx.info

Track history (hours):
 
Tides and Currents Weather Stations Pressure Air Temp Water Temp Dewpoint Dewpoint Depression Visibility Wind Speed Wind Dir Waves Ship Positions

Oceanographic research ship USCGC Polar Star (USA)

Detailed information on ship capabilities available from University of Delaware's Ocean Information Center and ARCUS's ALIAS (Arctic Logistics Information and Support) project.

Last reported at 2015-Apr-16 18:32 UTC. Time now 2015-Jul-04 11:43 UTC.
Position N 38°06' W 122°16'.
Warning: this ship's position is months out of date.

Type: Military. MMSI: 367255000.

Date/timePositionNaut miles runAvg speedWind from/ knotsBaromVisibWave heightAir tempDewpointWater temp
2015-Apr-16 18:32N 38°06' W 122°16'6 5.9
2015-Apr-16 17:33N 38°02' W 122°22'9 8.6
2015-Apr-16 16:33N 37°55' W 122°27'7 7.4
2015-Apr-16 15:33N 37°48' W 122°22'2 1.7
2015-Apr-16 14:32N 37°47' W 122°21'0 0.0
2015-Apr-16 13:32N 37°47' W 122°21'0 0.1
2015-Apr-16 12:32N 37°47' W 122°21'0 0.0
2015-Apr-16 11:33N 37°47' W 122°21'0 0.0
2015-Apr-16 10:32N 37°47' W 122°21'0 0.0
2015-Apr-16 09:32N 37°47' W 122°21'0 0.0
2015-Apr-16 08:32N 37°47' W 122°21'0 0.0
2015-Apr-16 07:29N 37°47' W 122°21'0 0.1
2015-Apr-16 06:32N 37°47' W 122°21'0 0.1
2015-Apr-16 05:33N 37°47' W 122°21'0 0.0
2015-Apr-16 04:33N 37°47' W 122°21'0 0.0
2015-Apr-16 03:33N 37°47' W 122°21'0 0.0
2015-Apr-16 02:32N 37°47' W 122°21'0 0.0
2015-Apr-16 01:32N 37°47' W 122°21'4 4.2
2015-Apr-16 00:33N 37°49' W 122°25'1414.0
2015-Apr-15 23:34N 37°48' W 122°43'9 8.5
2015-Apr-15 22:34N 37°53' W 122°52'5 5.0
2015-Apr-15 21:34N 37°56' W 122°57'4 3.9
2015-Apr-15 20:34N 37°54' W 122°53'3 2.6
2015-Apr-15 19:32N 37°57' W 122°53'5 5.1
2015-Apr-15 18:33N 37°54' W 122°48'4 4.0
2015-Apr-15 17:33N 37°57' W 122°51'2 2.4
2015-Apr-15 16:33N 37°55' W 122°53'4 4.4
2015-Apr-15 15:33N 37°53' W 122°48'7 7.0
2015-Apr-15 14:33N 37°57' W 122°56'7 7.5
2015-Apr-15 13:33N 37°52' W 122°49'8 8.4
2015-Apr-15 12:33N 37°57' W 122°57'9 8.7
2015-Apr-15 11:33N 37°53' W 122°48'7 7.1
2015-Apr-15 10:33N 37°56' W 122°55'10 9.8
2015-Apr-15 09:33N 37°49' W 122°46'7 7.2
2015-Apr-15 08:33N 37°50' W 122°55'1111.1
2015-Apr-15 07:33N 37°55' W 123°08'1312.8
2015-Apr-15 06:33N 38°05' W 123°19'7 7.0
2015-Apr-15 05:33N 37°58' W 123°23'9 9.0
2015-Apr-15 04:33N 37°49' W 123°22'7 7.0
2015-Apr-15 03:31N 37°42' W 123°23'3 2.5
2015-Apr-15 02:12N 37°41' W 123°27'1 0.9
2015-Apr-15 01:28N 37°41' W 123°26'6 5.4
2015-Apr-15 00:24N 37°37' W 123°20'910.6
2015-Apr-14 23:33N 37°35' W 123°09'1616.0
2015-Apr-14 22:33N 37°41' W 122°51'1514.6
2015-Apr-14 21:33N 37°47' W 122°34'9 8.8
2015-Apr-14 20:34N 37°47' W 122°23'0 0.0
2015-Apr-14 19:33N 37°47' W 122°23'0 0.0
2015-Apr-12 17:14N 37°47' W 122°23'2 2.3
2015-Apr-12 16:33N 37°49' W 122°24'10 9.8
2015-Apr-12 15:33N 37°46' W 122°36'9 8.8
2015-Apr-12 14:33N 37°47' W 122°47'9 8.9
2015-Apr-12 13:33N 37°51' W 122°57'9 8.5
2015-Apr-12 12:33N 37°55' W 123°07'8 8.2
2015-Apr-12 11:33N 38°00' W 123°15'8 8.2
2015-Apr-12 10:33N 38°07' W 123°21'9 8.5
2015-Apr-12 09:33N 38°14' W 123°26'9 8.8
2015-Apr-12 08:33N 38°22' W 123°31'1010.0
2015-Apr-12 07:33N 38°31' W 123°37'10 9.7
2015-Apr-12 06:33N 38°40' W 123°43'42913.4
2015-Apr-10 22:32N 45°44' W 125°05'1616.5
2015-Apr-10 21:33N 46°00' W 125°05'1616.3
2015-Apr-10 20:33N 46°17' W 125°05'1616.2
2015-Apr-10 19:33N 46°33' W 125°06'1616.2
2015-Apr-10 18:33N 46°49' W 125°06'8313.7
2015-Apr-10 12:30N 48°12' W 125°07'1313.8
2015-Apr-10 11:32N 48°25' W 125°07'1312.9
2015-Apr-10 10:33N 48°31' W 124°50'1514.7
2015-Apr-10 09:34N 48°27' W 124°29'1515.1
2015-Apr-10 08:34N 48°21' W 124°08'1615.6
2015-Apr-10 07:34N 48°17' W 123°46'1515.1
2015-Apr-10 06:33N 48°14' W 123°23'1312.8
2015-Apr-10 05:33N 48°13' W 123°04'1212.0
2015-Apr-10 04:33N 48°11' W 122°46'2814.0
2015-Apr-10 02:33N 47°47' W 122°26'1010.0
2015-Apr-10 01:33N 47°37' W 122°23'2 2.3
2015-Apr-10 00:32N 47°35' W 122°20'0 0.0
2015-Apr-09 23:32N 47°35' W 122°21'0 0.0
2015-Apr-09 22:32N 47°35' W 122°21'0 0.0
2015-Apr-09 21:32N 47°35' W 122°21'0 0.0
2015-Apr-09 20:32N 47°35' W 122°21'0 0.0
2015-Apr-09 19:32N 47°35' W 122°21'  
Track history (hours):
 
Tides and Currents Weather Stations Pressure Air Temp Water Temp Dewpoint Dewpoint Depression Visibility Wind Speed Wind Dir Waves Ship Positions

Oceanographic research ship USCGC Polar Star (USA)

Detailed information on ship capabilities available from University of Delaware's Ocean Information Center and ARCUS's ALIAS (Arctic Logistics Information and Support) project.

Last reported at 2015-Apr-16 18:32 UTC. Time now 2015-Jul-04 11:43 UTC.
Position N 38°06' W 122°16'.
Warning: this ship's position is months out of date.

Type: Military. MMSI: 367255000.

Date/timePositionNaut miles runAvg speedWind from/ knotsBaromVisibWave heightAir tempDewpointWater temp
2015-Apr-16 18:32N 38°06' W 122°16'6 5.9
2015-Apr-16 17:33N 38°02' W 122°22'9 8.6
2015-Apr-16 16:33N 37°55' W 122°27'7 7.4
2015-Apr-16 15:33N 37°48' W 122°22'2 1.7
2015-Apr-16 14:32N 37°47' W 122°21'0 0.0
2015-Apr-16 13:32N 37°47' W 122°21'0 0.1
2015-Apr-16 12:32N 37°47' W 122°21'0 0.0
2015-Apr-16 11:33N 37°47' W 122°21'0 0.0
2015-Apr-16 10:32N 37°47' W 122°21'0 0.0
2015-Apr-16 09:32N 37°47' W 122°21'0 0.0
2015-Apr-16 08:32N 37°47' W 122°21'0 0.0
2015-Apr-16 07:29N 37°47' W 122°21'0 0.1
2015-Apr-16 06:32N 37°47' W 122°21'0 0.1
2015-Apr-16 05:33N 37°47' W 122°21'0 0.0
2015-Apr-16 04:33N 37°47' W 122°21'0 0.0
2015-Apr-16 03:33N 37°47' W 122°21'0 0.0
2015-Apr-16 02:32N 37°47' W 122°21'0 0.0
2015-Apr-16 01:32N 37°47' W 122°21'4 4.2
2015-Apr-16 00:33N 37°49' W 122°25'1414.0
2015-Apr-15 23:34N 37°48' W 122°43'9 8.5
2015-Apr-15 22:34N 37°53' W 122°52'5 5.0
2015-Apr-15 21:34N 37°56' W 122°57'4 3.9
2015-Apr-15 20:34N 37°54' W 122°53'3 2.6
2015-Apr-15 19:32N 37°57' W 122°53'5 5.1
2015-Apr-15 18:33N 37°54' W 122°48'4 4.0
2015-Apr-15 17:33N 37°57' W 122°51'2 2.4
2015-Apr-15 16:33N 37°55' W 122°53'4 4.4
2015-Apr-15 15:33N 37°53' W 122°48'7 7.0
2015-Apr-15 14:33N 37°57' W 122°56'7 7.5
2015-Apr-15 13:33N 37°52' W 122°49'8 8.4
2015-Apr-15 12:33N 37°57' W 122°57'9 8.7
2015-Apr-15 11:33N 37°53' W 122°48'7 7.1
2015-Apr-15 10:33N 37°56' W 122°55'10 9.8
2015-Apr-15 09:33N 37°49' W 122°46'7 7.2
2015-Apr-15 08:33N 37°50' W 122°55'1111.1
2015-Apr-15 07:33N 37°55' W 123°08'1312.8
2015-Apr-15 06:33N 38°05' W 123°19'7 7.0
2015-Apr-15 05:33N 37°58' W 123°23'9 9.0
2015-Apr-15 04:33N 37°49' W 123°22'7 7.0
2015-Apr-15 03:31N 37°42' W 123°23'3 2.5
2015-Apr-15 02:12N 37°41' W 123°27'1 0.9
2015-Apr-15 01:28N 37°41' W 123°26'6 5.4
2015-Apr-15 00:24N 37°37' W 123°20'910.6
2015-Apr-14 23:33N 37°35' W 123°09'1616.0
2015-Apr-14 22:33N 37°41' W 122°51'1514.6
2015-Apr-14 21:33N 37°47' W 122°34'9 8.8
2015-Apr-14 20:34N 37°47' W 122°23'0 0.0
2015-Apr-14 19:33N 37°47' W 122°23'0 0.0
2015-Apr-12 17:14N 37°47' W 122°23'2 2.3
2015-Apr-12 16:33N 37°49' W 122°24'10 9.8
2015-Apr-12 15:33N 37°46' W 122°36'9 8.8
2015-Apr-12 14:33N 37°47' W 122°47'9 8.9
2015-Apr-12 13:33N 37°51' W 122°57'9 8.5
2015-Apr-12 12:33N 37°55' W 123°07'8 8.2
2015-Apr-12 11:33N 38°00' W 123°15'8 8.2
2015-Apr-12 10:33N 38°07' W 123°21'9 8.5
2015-Apr-12 09:33N 38°14' W 123°26'9 8.8
2015-Apr-12 08:33N 38°22' W 123°31'1010.0
2015-Apr-12 07:33N 38°31' W 123°37'10 9.7
2015-Apr-12 06:33N 38°40' W 123°43'42913.4
2015-Apr-10 22:32N 45°44' W 125°05'1616.5
2015-Apr-10 21:33N 46°00' W 125°05'1616.3
2015-Apr-10 20:33N 46°17' W 125°05'1616.2
2015-Apr-10 19:33N 46°33' W 125°06'1616.2
2015-Apr-10 18:33N 46°49' W 125°06'8313.7
2015-Apr-10 12:30N 48°12' W 125°07'1313.8
2015-Apr-10 11:32N 48°25' W 125°07'1312.9
2015-Apr-10 10:33N 48°31' W 124°50'1514.7
2015-Apr-10 09:34N 48°27' W 124°29'1515.1
2015-Apr-10 08:34N 48°21' W 124°08'1615.6
2015-Apr-10 07:34N 48°17' W 123°46'1515.1
2015-Apr-10 06:33N 48°14' W 123°23'1312.8
2015-Apr-10 05:33N 48°13' W 123°04'1212.0
2015-Apr-10 04:33N 48°11' W 122°46'2814.0
2015-Apr-10 02:33N 47°47' W 122°26'1010.0
2015-Apr-10 01:33N 47°37' W 122°23'2 2.3
2015-Apr-10 00:32N 47°35' W 122°20'0 0.0
2015-Apr-09 23:32N 47°35' W 122°21'0 0.0
2015-Apr-09 22:32N 47°35' W 122°21'0 0.0
2015-Apr-09 21:32N 47°35' W 122°21'0 0.0
2015-Apr-09 20:32N 47°35' W 122°21'0 0.0
2015-Apr-09 19:32N 47°35' W 122°21'  

Dump ship's entire track history